Margate, Florida
Current Conditions -  °F | °C
As of 2:53 AM on Friday 28 Nov 2014 (Local Time) from KFXE Reporting Station
Clear Clear  
Wind Chill: 56°   Ceiling: Unl
Heat Index: 56°   Visibility: 10mi
Dew Point: 42°   Wind: 9mph
Humidity: 60%   Direction: 330°NNW
Pressure: 30.17"   Gusts: NA
Location:  26.24°N, 80.2°W
Report Text: KFXE 280753Z 33008KT 10SM CLR 13/06 A3017 RMK AO2 SLP218 T01330056 $
Loading
Personal Weather Stations






























Interactive Weather Map New forecast layout! Learn more

10-Day Weather Forecast

Advertisements
Track Severe Weather on mobile